METAR AND TAF INFORMATION
METAR FOR VOHY
ADDS - METARS form results

(1357 UTC 17 November 2018)
Data provider http://aviationweather.gov/metar/data/
 
METAR text: VOHY 171330Z 11005KT 5000 HZ NSC 29/22 Q1014 NOSIG
Conditions at: VOHY (HYDERABAD (CIV/M, IN) observed 1330 UTC 17 November 2018
Temperature: 29.0°C (84°F)
Dewpoint: 22.0°C (72°F) [RH = 66%]
Pressure (altimeter): 29.94 inches Hg (1014.0 mb)
Winds: from the ESE (110 degrees) at 6 MPH (5 knots; 2.6 m/s)
Visibility: 3 miles ( 5 km)
Ceiling: at least 12,000 feet AGL
Clouds: sky clear below 12,000 feet AGL
Weather: HZ  (haze)

METAR text: VOHY 171300Z 11005KT 5000 HZ NSC 29/22 Q1013 NOSIG
Conditions at: VOHY (HYDERABAD (CIV/M, IN) observed 1300 UTC 17 November 2018
Temperature: 29.0°C (84°F)
Dewpoint: 22.0°C (72°F) [RH = 66%]
Pressure (altimeter): 29.91 inches Hg (1013.0 mb)
Winds: from the ESE (110 degrees) at 6 MPH (5 knots; 2.6 m/s)
Visibility: 3 miles ( 5 km)
Ceiling: at least 12,000 feet AGL
Clouds: sky clear below 12,000 feet AGL
Weather: HZ  (haze)

 AIRPORT MAP

 RUNWAY INFORMATION
Runway 09 Runway length 10600 ft Runway width 148 ft
Runway elevation 1741 ft Runway displaced threshold 1575 ft Runway heading 89
Runway 27 Runway length 10600 ft Runway width 148 ft
Runway elevation 1715 ft Runway displaced threshold 2424 ft Runway heading 269

 AIRPORT FREQUENCIES
Type ACC Name ACC Frequency 129.7 MHZ
Type APP Name APP Frequency 132.4 MHZ
Type ATIS Name ATIS Frequency 126.8 MHZ
Type RDO Name RDO Frequency 287.2 MHZ
Type TWR Name TWR Frequency 122.25 MHZ

 AIRPORT NEAR NAVIGATION AIDS
Type VOR-DME Name Hyderabad Frequency 114700 KHZ



Copyright © 2011 - 2018 BirgenAir Virtual Airlines. All rights reserved. Developed by Goktug Unver